Time;durP1;ratioP1;P1;durP2;ratioP2;P2;SDS_P1;SDS_P2;PMS_P1;PMS_P2;Temp;Humidity;BMP_temperature;BMP_pressure;BME280_temperature;BME280_humidity;BME280_pressure;Samples;Min_cycle;Max_cycle;Signal;HPM_P1;HPM_P2
2022/12/25 00:01:26;;;;;;;9.43;4.80;;;16.40;58.80;;;;;;5011385;28;20459;-76
2022/12/25 00:03:56;;;;;;;7.07;4.50;;;16.40;58.90;;;;;;5010845;28;20452;-77
2022/12/25 00:06:24;;;;;;;13.93;4.90;;;16.40;58.90;;;;;;5010264;28;21025;-77
2022/12/25 00:08:52;;;;;;;13.20;5.00;;;16.40;58.90;;;;;;5009161;28;20480;-76
2022/12/25 00:11:20;;;;;;;8.30;4.80;;;16.40;58.80;;;;;;5011731;28;20472;-77
2022/12/25 00:13:48;;;;;;;12.67;5.00;;;16.40;58.80;;;;;;5009551;28;20448;-77
2022/12/25 00:16:17;;;;;;;11.60;5.43;;;16.40;58.80;;;;;;5008036;28;20459;-78
2022/12/25 00:18:45;;;;;;;10.93;5.50;;;16.40;58.70;;;;;;5008169;28;20508;-78
2022/12/25 00:21:14;;;;;;;9.30;5.00;;;16.40;58.80;;;;;;5005623;28;20532;-77
2022/12/25 00:23:42;;;;;;;8.30;4.47;;;16.40;58.80;;;;;;5008969;28;20456;-77
2022/12/25 00:26:12;;;;;;;8.37;4.57;;;16.40;58.60;;;;;;5016694;28;20530;-78
2022/12/25 00:28:40;;;;;;;9.50;4.13;;;16.30;58.70;;;;;;5005384;28;20448;-78
2022/12/25 00:31:09;;;;;;;18.07;5.63;;;16.40;58.80;;;;;;5011399;28;20459;-77
2022/12/25 00:33:38;;;;;;;7.53;4.90;;;16.30;58.60;;;;;;5009843;28;20487;-76
2022/12/25 00:36:06;;;;;;;10.93;5.07;;;16.30;58.70;;;;;;5009956;28;20452;-78
2022/12/25 00:38:37;;;;;;;10.20;4.67;;;16.30;58.50;;;;;;5006928;28;20472;-77
2022/12/25 00:41:06;;;;;;;17.17;4.97;;;16.30;58.70;;;;;;5006170;28;20527;-78
2022/12/25 00:43:34;;;;;;;11.37;5.67;;;16.30;59.20;;;;;;5009403;28;20460;-77
2022/12/25 00:46:02;;;;;;;11.70;4.90;;;16.30;58.70;;;;;;5007727;28;20856;-77
2022/12/25 00:48:31;;;;;;;7.50;4.40;;;16.30;58.70;;;;;;5009829;28;20805;-78
2022/12/25 00:50:59;;;;;;;9.30;4.57;;;16.30;58.70;;;;;;5011479;28;20453;-76
2022/12/25 00:53:27;;;;;;;9.43;4.87;;;16.30;58.70;;;;;;5028084;28;20539;-79
2022/12/25 00:55:57;;;;;;;8.23;4.73;;;16.30;58.50;;;;;;5026897;28;20475;-78
2022/12/25 00:58:26;;;;;;;9.90;5.43;;;16.20;58.60;;;;;;5025867;28;20440;-78
2022/12/25 01:00:55;;;;;;;8.90;4.70;;;16.20;58.80;;;;;;5026952;28;20516;-78
2022/12/25 01:03:22;;;;;;;14.13;4.73;;;16.20;58.70;;;;;;5031557;28;20469;-78
2022/12/25 01:05:55;;;;;;;7.37;4.60;;;16.20;58.70;;;;;;5031755;28;20516;-78
2022/12/25 01:08:23;;;;;;;7.03;4.63;;;16.20;58.80;;;;;;5031625;28;20448;-78
2022/12/25 01:10:55;;;;;;;10.50;4.87;;;16.20;58.70;;;;;;5016286;28;20440;-76
2022/12/25 01:13:23;;;;;;;11.80;4.90;;;16.20;58.70;;;;;;5010655;28;20487;-77
2022/12/25 01:15:53;;;;;;;12.13;5.40;;;16.20;58.80;;;;;;5012073;28;20445;-76
2022/12/25 01:18:22;;;;;;;9.27;5.10;;;16.20;58.80;;;;;;5009756;28;20467;-76
2022/12/25 01:20:50;;;;;;;7.20;4.90;;;16.20;58.70;;;;;;5008611;28;20968;-76
2022/12/25 01:23:17;;;;;;;8.57;5.03;;;16.20;58.80;;;;;;5009808;28;20479;-77
2022/12/25 01:25:45;;;;;;;7.80;5.00;;;16.20;58.80;;;;;;5006989;28;20461;-77
2022/12/25 01:28:15;;;;;;;10.10;4.93;;;16.20;58.70;;;;;;5002541;28;20464;-78
2022/12/25 01:30:48;;;;;;;8.73;4.63;;;16.20;58.80;;;;;;5006835;28;20476;-78
2022/12/25 01:33:16;;;;;;;10.87;4.97;;;16.20;58.70;;;;;;5009749;28;20491;-77
2022/12/25 01:35:44;;;;;;;7.47;4.63;;;16.10;58.60;;;;;;5008613;28;20448;-78
2022/12/25 01:38:11;;;;;;;10.47;4.90;;;16.10;58.80;;;;;;5009226;28;20477;-78
2022/12/25 01:40:39;;;;;;;11.30;4.87;;;16.10;58.80;;;;;;5004328;28;20471;-79
2022/12/25 01:43:16;;;;;;;10.40;4.60;;;16.10;58.90;;;;;;5009810;28;20457;-79
2022/12/25 01:45:47;;;;;;;10.90;4.70;;;16.10;58.80;;;;;;5008114;28;20451;-77
2022/12/25 01:48:18;;;;;;;10.87;5.00;;;16.10;58.80;;;;;;5012997;28;20448;-77
2022/12/25 01:50:47;;;;;;;6.20;4.70;;;16.20;58.80;;;;;;5007654;28;20475;-79
2022/12/25 01:53:15;;;;;;;11.60;5.07;;;16.20;58.80;;;;;;5002057;28;20476;-78
2022/12/25 01:55:43;;;;;;;10.30;5.20;;;16.10;58.80;;;;;;5001677;28;20470;-77
2022/12/25 01:58:11;;;;;;;12.50;5.07;;;16.10;58.80;;;;;;5002861;28;20453;-78
2022/12/25 02:00:40;;;;;;;7.47;4.83;;;16.10;58.70;;;;;;5008355;28;21014;-78
2022/12/25 02:03:08;;;;;;;9.70;5.10;;;16.10;58.80;;;;;;5002974;28;20507;-78
2022/12/25 02:05:36;;;;;;;7.23;4.70;;;16.10;58.90;;;;;;5007804;28;20478;-77
2022/12/25 02:08:07;;;;;;;10.87;4.90;;;16.10;58.90;;;;;;5008068;28;20453;-78
2022/12/25 02:10:35;;;;;;;10.83;4.43;;;16.00;59.00;;;;;;5000962;28;20489;-78
2022/12/25 02:13:03;;;;;;;7.57;4.20;;;16.10;59.10;;;;;;5008722;28;20476;-78
2022/12/25 02:15:35;;;;;;;6.40;4.43;;;16.10;59.00;;;;;;5008212;28;20448;-77
2022/12/25 02:18:06;;;;;;;6.20;4.27;;;16.10;59.10;;;;;;5002140;28;20540;-78
2022/12/25 02:20:51;;;;;;;10.37;5.10;;;16.10;59.00;;;;;;5007640;28;20483;-78
2022/12/25 02:23:43;;;;;;;7.27;4.57;;;16.10;59.00;;;;;;5008577;28;20448;-76
2022/12/25 02:26:16;;;;;;;8.57;4.63;;;16.00;58.90;;;;;;5011141;28;20501;-78
2022/12/25 02:28:49;;;;;;;10.47;4.53;;;16.10;59.10;;;;;;5009214;28;20544;-77
2022/12/25 02:31:18;;;;;;;9.73;5.03;;;16.10;59.10;;;;;;5002781;28;20503;-77
2022/12/25 02:34:04;;;;;;;10.13;4.60;;;16.10;59.00;;;;;;5007763;28;20543;-77
2022/12/25 02:36:35;;;;;;;8.83;4.43;;;16.00;59.10;;;;;;5000636;28;20444;-77
2022/12/25 02:41:49;;;;;;;7.47;4.87;;;16.10;59.20;;;;;;5005802;28;20460;-78
2022/12/25 03:06:45;;;;;;;9.33;4.23;;;15.90;59.20;;;;;;5012682;28;20444;-78
2022/12/25 03:12:04;;;;;;;8.70;4.60;;;15.90;59.20;;;;;;5009565;28;20445;-78
2022/12/25 03:17:19;;;;;;;6.17;4.60;;;15.90;59.40;;;;;;5011865;28;20448;-78
2022/12/25 03:28:14;;;;;;;6.90;4.83;;;15.90;59.50;;;;;;5011862;28;20450;-77
2022/12/25 03:33:36;;;;;;;8.60;5.40;;;15.90;59.40;;;;;;5010453;28;20468;-78
2022/12/25 03:36:13;;;;;;;7.00;4.57;;;15.90;59.40;;;;;;5013445;28;20539;-78
2022/12/25 04:37:29;;;;;;;12.83;5.40;;;16.00;60.10;;;;;;5011029;28;20452;-80
2022/12/25 04:39:58;;;;;;;6.90;4.90;;;16.00;60.10;;;;;;5010991;28;20472;-79
2022/12/25 04:42:26;;;;;;;12.20;5.23;;;16.00;60.10;;;;;;5011798;28;20539;-78
2022/12/25 04:44:54;;;;;;;12.23;5.80;;;16.00;60.10;;;;;;5009552;28;20444;-78
2022/12/25 04:47:22;;;;;;;8.40;5.10;;;16.00;60.40;;;;;;5010375;28;20457;-79
2022/12/25 04:49:50;;;;;;;8.27;5.17;;;16.10;60.30;;;;;;5007480;28;20472;-80
2022/12/25 04:52:18;;;;;;;9.23;5.17;;;16.10;60.40;;;;;;5010871;28;20459;-79
2022/12/25 04:54:46;;;;;;;8.40;5.47;;;16.10;60.40;;;;;;5009607;28;20672;-78
2022/12/25 04:57:16;;;;;;;9.87;5.60;;;16.00;60.30;;;;;;5010226;28;20475;-79
2022/12/25 04:59:44;;;;;;;8.87;4.93;;;16.10;60.40;;;;;;5009247;28;20468;-78
2022/12/25 05:02:12;;;;;;;12.00;5.27;;;16.10;60.40;;;;;;5010239;28;20455;-79
2022/12/25 05:04:40;;;;;;;9.03;4.93;;;16.10;60.40;;;;;;5009246;28;20449;-79
2022/12/25 05:07:08;;;;;;;10.90;5.80;;;16.10;60.30;;;;;;5011719;28;20448;-79
2022/12/25 05:09:40;;;;;;;8.47;5.40;;;16.10;60.40;;;;;;5003485;28;20483;-79
2022/12/25 05:12:08;;;;;;;10.40;5.40;;;16.10;60.60;;;;;;5007883;28;20449;-79
2022/12/25 05:14:38;;;;;;;13.47;5.60;;;16.10;60.30;;;;;;5011744;28;20471;-79
2022/12/25 05:17:07;;;;;;;11.33;4.70;;;16.10;60.50;;;;;;5008207;28;20448;-79
2022/12/25 05:19:35;;;;;;;11.80;6.60;;;16.10;60.40;;;;;;5010712;28;20488;-78
2022/12/25 05:22:03;;;;;;;13.07;5.90;;;16.10;60.40;;;;;;5008199;28;20460;-78
2022/12/25 05:24:31;;;;;;;11.83;5.73;;;16.20;60.60;;;;;;5009036;28;20459;-80
2022/12/25 05:26:59;;;;;;;10.53;5.37;;;16.10;60.40;;;;;;5002794;28;20484;-79
2022/12/25 05:29:27;;;;;;;12.20;6.00;;;16.10;60.60;;;;;;5005892;28;20472;-80
2022/12/25 05:31:57;;;;;;;9.10;5.67;;;16.10;60.50;;;;;;5010321;28;20488;-79
2022/12/25 05:34:25;;;;;;;10.53;5.87;;;16.20;60.80;;;;;;5007578;28;20468;-79
2022/12/25 05:36:55;;;;;;;10.80;6.10;;;16.20;60.70;;;;;;5011520;28;20460;-80
2022/12/25 05:39:23;;;;;;;9.00;5.20;;;16.20;60.70;;;;;;5009802;28;20472;-79
2022/12/25 05:41:50;;;;;;;9.60;5.50;;;16.20;60.70;;;;;;5011538;28;20479;-79
2022/12/25 05:44:18;;;;;;;11.60;5.73;;;16.20;61.50;;;;;;5007211;28;20452;-79
2022/12/25 05:46:46;;;;;;;9.63;6.03;;;16.20;60.70;;;;;;5009482;28;20830;-79
2022/12/25 05:49:15;;;;;;;9.97;5.47;;;16.20;60.70;;;;;;5010430;28;20483;-79
2022/12/25 05:51:43;;;;;;;10.77;5.50;;;16.20;60.70;;;;;;5010399;28;20451;-78
2022/12/25 05:54:10;;;;;;;11.13;5.60;;;16.20;60.70;;;;;;5007905;28;20456;-79
2022/12/25 05:56:38;;;;;;;11.23;5.80;;;16.20;60.90;;;;;;5011301;28;20460;-79
2022/12/25 05:59:06;;;;;;;11.57;6.67;;;16.20;60.70;;;;;;5009488;28;20480;-79
2022/12/25 06:01:34;;;;;;;10.43;5.90;;;16.20;60.70;;;;;;5010884;28;20467;-79
2022/12/25 06:04:02;;;;;;;10.10;5.67;;;16.20;60.80;;;;;;5008523;28;20503;-79
2022/12/25 06:06:40;;;;;;;12.67;5.70;;;16.20;60.60;;;;;;5010817;28;20440;-79
2022/12/25 06:09:09;;;;;;;7.27;5.37;;;16.20;60.70;;;;;;5008726;28;20483;-78
2022/12/25 06:11:36;;;;;;;10.47;5.70;;;16.20;60.60;;;;;;5009495;28;20452;-79
2022/12/25 06:14:05;;;;;;;9.20;6.30;;;16.20;60.80;;;;;;5008849;28;20457;-79
2022/12/25 06:16:33;;;;;;;10.53;5.33;;;16.20;60.90;;;;;;5009449;28;20453;-77
2022/12/25 06:19:05;;;;;;;9.33;5.07;;;16.20;60.80;;;;;;5009445;28;20516;-78
2022/12/25 06:21:33;;;;;;;10.60;5.87;;;16.20;60.90;;;;;;5007735;28;20457;-79
2022/12/25 06:24:02;;;;;;;10.53;5.60;;;16.20;61.00;;;;;;5003181;28;20444;-78
2022/12/25 06:26:30;;;;;;;11.53;5.23;;;16.30;61.00;;;;;;5010763;28;20474;-79
2022/12/25 06:28:59;;;;;;;11.27;5.97;;;16.30;61.10;;;;;;5012938;28;20464;-78
2022/12/25 06:31:26;;;;;;;9.50;5.83;;;16.30;61.00;;;;;;5014194;28;20458;-77
2022/12/25 06:33:55;;;;;;;13.40;5.97;;;16.30;60.90;;;;;;5011602;28;20470;-77
2022/12/25 06:36:23;;;;;;;13.73;5.60;;;16.30;61.10;;;;;;5012411;28;20484;-77
2022/12/25 06:38:51;;;;;;;9.60;5.37;;;16.30;60.90;;;;;;5015053;28;20559;-78
2022/12/25 06:41:21;;;;;;;11.97;5.50;;;16.30;60.90;;;;;;5010933;28;20455;-78
2022/12/25 06:43:49;;;;;;;9.27;5.40;;;16.30;60.90;;;;;;5013814;28;20483;-77
2022/12/25 06:46:18;;;;;;;8.20;5.57;;;16.30;60.90;;;;;;5017169;28;20444;-79
2022/12/25 06:48:48;;;;;;;15.57;5.90;;;16.30;60.90;;;;;;5018690;28;20547;-79
2022/12/25 06:51:16;;;;;;;10.57;6.23;;;16.30;61.00;;;;;;5014252;28;20448;-80
2022/12/25 06:53:44;;;;;;;10.40;5.27;;;16.40;60.90;;;;;;5015526;28;20927;-79
2022/12/25 06:56:14;;;;;;;7.47;5.30;;;16.30;61.20;;;;;;5014035;28;20473;-78
2022/12/25 06:58:44;;;;;;;9.93;5.30;;;16.30;61.00;;;;;;5014497;28;20452;-79
2022/12/25 07:01:14;;;;;;;8.73;5.27;;;16.30;61.10;;;;;;5011627;28;20453;-78
2022/12/25 07:03:43;;;;;;;15.43;6.10;;;16.40;61.10;;;;;;5013825;28;20460;-78
2022/12/25 07:06:11;;;;;;;11.67;5.87;;;16.40;61.00;;;;;;5012237;28;20468;-79
2022/12/25 07:08:38;;;;;;;10.37;5.23;;;16.40;61.10;;;;;;5012664;28;20458;-78
2022/12/25 07:11:06;;;;;;;5.70;4.63;;;16.40;61.20;;;;;;5009582;28;20452;-79
2022/12/25 07:13:34;;;;;;;9.87;4.90;;;16.30;61.00;;;;;;5008411;28;20460;-79
2022/12/25 07:16:03;;;;;;;8.00;5.30;;;16.30;61.00;;;;;;5013223;28;20487;-77
2022/12/25 07:18:32;;;;;;;8.90;5.47;;;16.40;61.10;;;;;;5013249;28;20448;-79
2022/12/25 07:21:05;;;;;;;9.30;4.80;;;16.40;61.20;;;;;;5013162;28;20461;-78
2022/12/25 07:23:33;;;;;;;7.30;4.40;;;16.40;61.00;;;;;;5013138;28;20451;-75
2022/12/25 07:26:02;;;;;;;9.30;5.10;;;16.40;61.00;;;;;;5010209;28;20445;-76
2022/12/25 07:28:30;;;;;;;9.33;5.20;;;16.40;61.10;;;;;;5006992;28;20459;-77
2022/12/25 07:31:02;;;;;;;11.67;4.77;;;16.50;61.00;;;;;;5010689;28;20461;-77
2022/12/25 07:33:30;;;;;;;8.90;5.13;;;16.50;61.00;;;;;;5012874;28;20448;-76
2022/12/25 07:35:58;;;;;;;6.83;4.50;;;16.50;60.90;;;;;;5010318;28;20480;-76
2022/12/25 07:38:26;;;;;;;11.50;5.40;;;16.50;61.00;;;;;;5013292;28;20460;-77
2022/12/25 07:40:54;;;;;;;9.13;5.20;;;16.50;60.90;;;;;;5011460;28;20452;-79
2022/12/25 07:43:22;;;;;;;7.73;5.00;;;16.50;61.20;;;;;;5013623;28;20452;-78
2022/12/25 07:45:54;;;;;;;8.37;5.23;;;16.50;61.00;;;;;;5014069;28;20448;-77
2022/12/25 07:48:23;;;;;;;12.83;5.20;;;16.50;61.00;;;;;;5013225;28;20448;-79
2022/12/25 07:50:56;;;;;;;10.77;5.40;;;16.50;61.10;;;;;;5009037;28;20448;-80
2022/12/25 07:53:24;;;;;;;10.43;4.80;;;16.50;60.90;;;;;;5011155;28;20456;-78
2022/12/25 07:55:59;;;;;;;9.97;4.60;;;16.50;61.00;;;;;;5012434;28;20464;-80
2022/12/25 07:58:27;;;;;;;10.23;5.00;;;16.50;61.00;;;;;;5011509;28;20462;-78
2022/12/25 08:00:55;;;;;;;7.87;4.90;;;16.50;61.00;;;;;;5009845;28;20467;-78
2022/12/25 08:03:24;;;;;;;10.07;5.10;;;16.50;61.20;;;;;;5011595;28;20499;-79
2022/12/25 08:05:53;;;;;;;10.00;4.77;;;16.50;61.10;;;;;;5010472;28;20456;-79
2022/12/25 08:08:21;;;;;;;10.33;5.30;;;16.60;61.10;;;;;;5011551;28;20464;-78
2022/12/25 08:10:49;;;;;;;9.73;5.07;;;16.60;61.00;;;;;;5007306;28;20456;-78
2022/12/25 08:13:17;;;;;;;10.13;4.40;;;16.60;61.20;;;;;;5005421;28;20457;-78
2022/12/25 08:15:45;;;;;;;9.70;5.23;;;16.60;61.10;;;;;;5011716;28;20472;-80
2022/12/25 08:18:13;;;;;;;8.30;5.00;;;16.60;61.20;;;;;;5010959;28;20463;-79
2022/12/25 08:20:42;;;;;;;8.03;4.80;;;16.60;61.00;;;;;;5005167;28;20472;-79
2022/12/25 08:23:10;;;;;;;8.03;5.10;;;16.60;61.00;;;;;;5010051;28;20456;-79
2022/12/25 08:25:38;;;;;;;6.93;4.70;;;16.60;61.10;;;;;;5011011;28;20452;-79
2022/12/25 08:28:06;;;;;;;10.43;5.63;;;16.70;61.20;;;;;;5008929;28;20456;-77
2022/12/25 08:30:34;;;;;;;7.43;4.80;;;16.70;61.20;;;;;;5009514;28;20560;-78
2022/12/25 08:33:02;;;;;;;8.53;4.43;;;16.70;61.10;;;;;;5006195;28;20515;-77
2022/12/25 08:35:34;;;;;;;7.97;4.70;;;16.70;61.20;;;;;;5009586;28;20467;-77
2022/12/25 08:38:04;;;;;;;8.37;4.87;;;16.70;61.10;;;;;;5008440;28;20456;-78
2022/12/25 08:40:32;;;;;;;9.30;4.90;;;16.70;61.00;;;;;;5011733;28;20495;-78
2022/12/25 08:43:00;;;;;;;11.03;5.47;;;16.70;60.90;;;;;;5009297;28;20460;-79
2022/12/25 08:45:28;;;;;;;7.57;4.53;;;16.80;61.10;;;;;;5009395;28;20448;-79
2022/12/25 08:48:01;;;;;;;7.10;4.60;;;16.80;61.20;;;;;;5010461;28;20552;-78
2022/12/25 08:50:29;;;;;;;9.60;5.10;;;16.80;61.20;;;;;;5010817;28;20510;-77
2022/12/25 08:52:57;;;;;;;6.67;4.80;;;16.80;61.00;;;;;;5010451;28;20455;-79
2022/12/25 08:55:27;;;;;;;6.63;4.77;;;16.80;61.10;;;;;;5009527;28;20452;-78
2022/12/25 08:57:54;;;;;;;7.47;5.37;;;16.80;60.90;;;;;;5009885;28;20472;-77
2022/12/25 09:00:23;;;;;;;9.03;4.80;;;16.90;61.10;;;;;;5010088;28;20560;-79
2022/12/25 09:02:50;;;;;;;8.50;4.80;;;16.90;61.10;;;;;;5004081;28;20452;-78
2022/12/25 09:05:18;;;;;;;10.90;5.17;;;16.90;61.20;;;;;;5010361;28;20490;-78
2022/12/25 09:07:46;;;;;;;6.40;4.70;;;16.90;61.10;;;;;;5009708;28;20456;-78
2022/12/25 09:10:14;;;;;;;7.57;4.60;;;16.90;61.20;;;;;;5008270;28;20484;-78
2022/12/25 09:12:43;;;;;;;9.07;5.03;;;16.90;61.10;;;;;;5009212;28;20452;-77
2022/12/25 09:15:11;;;;;;;6.23;4.33;;;16.90;61.00;;;;;;5004778;28;20458;-78
2022/12/25 09:17:39;;;;;;;9.43;4.80;;;16.90;61.20;;;;;;5010335;28;20476;-77
2022/12/25 09:20:08;;;;;;;9.30;4.70;;;16.90;61.00;;;;;;5007719;28;20476;-78
2022/12/25 09:22:36;;;;;;;6.00;4.70;;;17.00;61.20;;;;;;5008473;28;20468;-78
2022/12/25 09:25:05;;;;;;;9.40;5.40;;;17.00;61.10;;;;;;5007604;28;20457;-78
2022/12/25 09:27:33;;;;;;;6.83;4.50;;;17.00;61.10;;;;;;5009779;28;20449;-78
2022/12/25 09:30:02;;;;;;;10.27;5.13;;;17.00;61.00;;;;;;5008777;28;20492;-77
2022/12/25 09:32:30;;;;;;;7.30;4.90;;;17.00;60.90;;;;;;5007770;28;20487;-76
2022/12/25 09:34:58;;;;;;;8.70;4.93;;;17.00;61.10;;;;;;5009028;28;20462;-76
2022/12/25 09:37:26;;;;;;;7.90;5.20;;;17.00;61.20;;;;;;5011023;28;20480;-77
2022/12/25 09:39:54;;;;;;;7.23;4.00;;;17.00;61.10;;;;;;5008728;28;20480;-77
2022/12/25 09:42:23;;;;;;;6.10;4.53;;;17.00;61.20;;;;;;5010272;28;20457;-78
2022/12/25 09:44:54;;;;;;;11.13;5.50;;;17.00;61.30;;;;;;5009781;28;20448;-77
2022/12/25 09:47:25;;;;;;;8.47;4.70;;;17.00;61.10;;;;;;5011189;28;20441;-78
2022/12/25 09:49:56;;;;;;;7.00;5.20;;;17.00;61.20;;;;;;5008836;28;20468;-78
2022/12/25 09:52:25;;;;;;;6.67;4.83;;;17.10;61.20;;;;;;5011202;28;20539;-78
2022/12/25 09:54:57;;;;;;;7.53;5.97;;;17.10;61.10;;;;;;5009318;28;20453;-78
2022/12/25 09:57:25;;;;;;;11.03;5.57;;;17.00;61.00;;;;;;5011770;28;20471;-77
2022/12/25 09:59:54;;;;;;;14.20;5.20;;;17.00;61.20;;;;;;5010880;28;20468;-77
2022/12/25 10:02:40;;;;;;;10.07;5.40;;;17.10;61.10;;;;;;5011023;28;20444;-78
2022/12/25 10:05:17;;;;;;;5.70;4.33;;;17.10;61.00;;;;;;5008870;28;20448;-77
2022/12/25 10:07:47;;;;;;;10.53;5.30;;;17.10;61.10;;;;;;5006186;28;20450;-78
2022/12/25 10:10:25;;;;;;;7.00;5.00;;;17.10;61.10;;;;;;5008364;28;20500;-77
2022/12/25 10:12:56;;;;;;;7.97;5.20;;;17.10;61.10;;;;;;5008781;28;20462;-77
2022/12/25 10:15:31;;;;;;;7.57;5.10;;;17.10;60.90;;;;;;5007569;28;20543;-78
2022/12/25 10:18:25;;;;;;;6.87;4.80;;;17.10;61.00;;;;;;5008366;28;20529;-77
2022/12/25 10:20:54;;;;;;;5.77;4.63;;;17.10;61.10;;;;;;5008411;28;20456;-77
2022/12/25 10:23:24;;;;;;;7.80;5.13;;;17.10;61.30;;;;;;5010086;28;20479;-77
2022/12/25 10:25:52;;;;;;;11.10;5.00;;;17.20;61.20;;;;;;5008718;28;20471;-78
2022/12/25 10:28:23;;;;;;;5.47;4.13;;;17.20;61.10;;;;;;5010183;28;20552;-76
2022/12/25 10:30:52;;;;;;;8.03;4.90;;;17.20;61.00;;;;;;5010406;28;20475;-77
2022/12/25 10:33:21;;;;;;;7.67;5.17;;;17.20;61.00;;;;;;5009094;28;20457;-77
2022/12/25 10:35:50;;;;;;;11.00;5.23;;;17.30;61.00;;;;;;5010105;28;20492;-78
2022/12/25 10:38:18;;;;;;;7.07;4.60;;;17.20;61.00;;;;;;5008504;28;20476;-79
2022/12/25 10:40:53;;;;;;;6.57;4.70;;;17.30;61.20;;;;;;5010565;28;20472;-77
2022/12/25 10:43:26;;;;;;;7.80;4.47;;;17.30;61.00;;;;;;5010449;28;20459;-75
2022/12/25 10:45:54;;;;;;;9.53;5.70;;;17.20;61.00;;;;;;5008093;28;20453;-77
2022/12/25 10:48:29;;;;;;;7.23;5.10;;;17.30;61.10;;;;;;5009514;28;20478;-78
2022/12/25 10:50:57;;;;;;;8.23;4.53;;;17.30;61.00;;;;;;5009075;28;20447;-78
2022/12/25 10:53:26;;;;;;;6.80;5.00;;;17.30;61.00;;;;;;5010161;28;20448;-78
2022/12/25 10:55:56;;;;;;;8.90;4.90;;;17.20;61.10;;;;;;5010828;28;20448;-78
2022/12/25 10:58:23;;;;;;;7.50;4.30;;;17.30;61.10;;;;;;5010875;28;20491;-78
2022/12/25 11:00:52;;;;;;;9.20;4.90;;;17.30;61.10;;;;;;5007203;28;20457;-77
2022/12/25 11:03:22;;;;;;;9.20;5.00;;;17.30;60.90;;;;;;5008845;28;20452;-77
2022/12/25 11:05:51;;;;;;;11.93;5.30;;;17.30;61.00;;;;;;5007190;28;20448;-78
2022/12/25 11:08:20;;;;;;;7.10;4.57;;;17.30;61.00;;;;;;5009351;28;20448;-77
2022/12/25 11:10:52;;;;;;;5.43;4.50;;;17.30;61.00;;;;;;5009665;28;20468;-78
2022/12/25 11:13:23;;;;;;;8.30;5.07;;;17.30;61.10;;;;;;5013470;28;20451;-77
2022/12/25 11:15:51;;;;;;;8.13;4.80;;;17.30;61.20;;;;;;5014896;28;20483;-78
2022/12/25 11:18:20;;;;;;;4.90;4.10;;;17.30;61.10;;;;;;5011713;28;20556;-78
2022/12/25 11:20:51;;;;;;;8.27;4.57;;;17.30;61.00;;;;;;5016607;28;21006;-78
2022/12/25 11:23:20;;;;;;;6.43;4.67;;;17.30;61.00;;;;;;5015337;28;20456;-77
2022/12/25 11:25:55;;;;;;;5.70;4.63;;;17.30;61.10;;;;;;5008483;28;20453;-78
2022/12/25 11:28:24;;;;;;;8.60;4.77;;;17.30;61.10;;;;;;5014034;28;20448;-78
2022/12/25 11:30:55;;;;;;;6.87;4.70;;;17.30;61.00;;;;;;5012726;28;20444;-78
2022/12/25 11:33:24;;;;;;;7.50;4.90;;;17.30;61.10;;;;;;5013366;28;20445;-78
2022/12/25 11:35:53;;;;;;;8.13;4.80;;;17.30;61.10;;;;;;5012640;28;20448;-79
2022/12/25 11:38:22;;;;;;;7.00;4.53;;;17.30;60.90;;;;;;5012126;28;20479;-78
2022/12/25 11:40:52;;;;;;;6.10;4.57;;;17.30;61.20;;;;;;5015300;28;20480;-78
2022/12/25 11:43:21;;;;;;;6.10;4.90;;;17.40;61.30;;;;;;5011860;28;20457;-78
2022/12/25 11:45:52;;;;;;;6.13;4.70;;;17.40;61.20;;;;;;5015741;28;20459;-79
2022/12/25 11:48:23;;;;;;;6.87;4.90;;;17.40;61.10;;;;;;5014223;28;20452;-78
2022/12/25 11:50:54;;;;;;;8.67;4.33;;;17.40;61.00;;;;;;5013510;28;20467;-75
2022/12/25 11:53:25;;;;;;;7.20;4.70;;;17.40;60.90;;;;;;5013022;28;20479;-78
2022/12/25 11:55:55;;;;;;;7.30;4.70;;;17.40;61.10;;;;;;5010876;28;20478;-78
2022/12/25 11:58:24;;;;;;;6.77;4.77;;;17.40;61.00;;;;;;5008057;28;20472;-78
2022/12/25 12:00:54;;;;;;;7.20;4.43;;;17.40;61.10;;;;;;5012247;28;20456;-78
2022/12/25 12:03:22;;;;;;;6.33;4.70;;;17.40;60.90;;;;;;5010911;28;20455;-78
2022/12/25 12:05:54;;;;;;;6.80;4.40;;;17.40;61.00;;;;;;5011647;28;20460;-77
2022/12/25 12:08:22;;;;;;;5.70;4.27;;;17.40;61.10;;;;;;5013045;28;20535;-78
2022/12/25 12:11:14;;;;;;;7.13;4.97;;;17.40;61.10;;;;;;5010938;28;20488;-77
2022/12/25 12:13:50;;;;;;;5.77;4.47;;;17.50;61.20;;;;;;5009201;28;20459;-77
2022/12/25 12:16:17;;;;;;;8.80;4.40;;;17.40;61.20;;;;;;5013178;28;20452;-77
2022/12/25 12:18:45;;;;;;;6.40;4.60;;;17.50;61.20;;;;;;5012536;28;20605;-77
2022/12/25 12:21:22;;;;;;;8.10;4.70;;;17.50;61.20;;;;;;5011001;28;20526;-77
2022/12/25 12:23:53;;;;;;;5.40;4.60;;;17.50;61.90;;;;;;5012332;28;20448;-78
2022/12/25 12:26:22;;;;;;;4.90;4.03;;;17.50;61.00;;;;;;5011084;28;20955;-77
2022/12/25 12:28:51;;;;;;;10.63;5.93;;;17.50;61.10;;;;;;5011897;28;20469;-76
2022/12/25 12:31:18;;;;;;;9.90;6.23;;;16.60;63.00;;;;;;5010988;28;20457;-77
2022/12/25 12:33:50;;;;;;;10.50;6.27;;;15.30;67.20;;;;;;5010599;28;20519;-77
2022/12/25 12:36:21;;;;;;;11.43;6.47;;;14.80;69.00;;;;;;5010155;28;20441;-77
2022/12/25 12:39:04;;;;;;;18.27;6.20;;;14.70;69.90;;;;;;5010687;28;20476;-77
2022/12/25 12:41:44;;;;;;;15.13;6.40;;;14.50;71.00;;;;;;5012528;28;20466;-77
2022/12/25 12:44:12;;;;;;;23.50;8.13;;;14.20;72.10;;;;;;5012224;28;20455;-76
2022/12/25 12:46:50;;;;;;;15.20;7.80;;;14.00;73.70;;;;;;5012291;28;20453;-77
2022/12/25 12:49:21;;;;;;;13.77;7.47;;;13.50;75.20;;;;;;5010378;28;20472;-76
2022/12/25 12:51:49;;;;;;;14.30;7.57;;;13.50;76.90;;;;;;5009130;28;20479;-77
2022/12/25 12:54:20;;;;;;;13.83;7.00;;;13.30;77.90;;;;;;5011241;28;20963;-76
2022/12/25 12:56:56;;;;;;;14.17;6.60;;;13.00;79.90;;;;;;5008702;28;20464;-80
2022/12/25 12:59:24;;;;;;;13.23;6.37;;;13.50;85.10;;;;;;5013188;28;20484;-78
2022/12/25 13:01:59;;;;;;;12.47;6.60;;;14.50;82.10;;;;;;5013116;28;20532;-78
2022/12/25 13:04:38;;;;;;;14.53;6.57;;;15.20;78.50;;;;;;5012886;28;20447;-77
2022/12/25 13:07:11;;;;;;;10.40;6.10;;;15.60;75.30;;;;;;5010772;28;20444;-82
2022/12/25 13:09:57;;;;;;;8.93;5.77;;;16.00;73.30;;;;;;5021402;28;20478;-78
2022/12/25 13:12:25;;;;;;;9.83;5.90;;;16.20;71.40;;;;;;5009724;28;20468;-76
2022/12/25 13:14:56;;;;;;;14.40;5.83;;;16.40;70.00;;;;;;5015712;28;20448;-79
2022/12/25 13:17:24;;;;;;;9.37;5.17;;;16.50;69.10;;;;;;5001061;28;20452;-77
2022/12/25 13:19:55;;;;;;;9.80;5.77;;;16.70;68.40;;;;;;5014013;28;20482;-77
2022/12/25 13:22:24;;;;;;;10.93;5.07;;;16.80;67.80;;;;;;5011334;28;20463;-77
2022/12/25 13:24:59;;;;;;;11.50;5.17;;;16.80;67.20;;;;;;5010361;28;20463;-82
2022/12/25 13:27:28;;;;;;;8.13;4.87;;;16.90;66.70;;;;;;5011525;28;20448;-81
2022/12/25 13:29:57;;;;;;;10.50;4.60;;;17.00;66.40;;;;;;5010568;28;20464;-80
2022/12/25 13:32:26;;;;;;;7.73;5.43;;;17.00;65.90;;;;;;5011691;28;20459;-80
2022/12/25 13:34:55;;;;;;;8.80;4.70;;;17.00;65.70;;;;;;5010359;28;20444;-80
2022/12/25 13:37:25;;;;;;;9.87;5.00;;;17.10;65.50;;;;;;5011854;28;20456;-83
2022/12/25 13:39:54;;;;;;;8.23;4.90;;;17.10;65.30;;;;;;5018490;28;20476;-82
2022/12/25 13:42:26;;;;;;;4.33;3.93;;;17.10;65.10;;;;;;5018354;28;20453;-85
2022/12/25 13:44:55;;;;;;;9.00;4.60;;;17.20;65.00;;;;;;5018191;28;20459;-78
2022/12/25 13:47:25;;;;;;;7.17;4.10;;;17.20;64.90;;;;;;5012871;28;20456;-80
2022/12/25 13:49:54;;;;;;;7.73;4.63;;;17.20;64.80;;;;;;5011045;28;20469;-80
2022/12/25 13:52:25;;;;;;;6.77;4.17;;;17.20;64.60;;;;;;5024606;28;20440;-83
2022/12/25 13:54:56;;;;;;;8.20;4.10;;;17.20;64.60;;;;;;5036789;28;20423;-83
2022/12/25 13:57:28;;;;;;;12.37;4.33;;;17.20;64.30;;;;;;5029019;28;20431;-78
2022/12/25 13:59:56;;;;;;;9.67;4.63;;;17.30;64.40;;;;;;5027288;28;20472;-77
2022/12/25 14:02:29;;;;;;;6.33;4.27;;;17.30;64.30;;;;;;5028774;28;20438;-78
2022/12/25 14:04:57;;;;;;;6.83;4.17;;;17.30;64.30;;;;;;5027823;28;20452;-78
2022/12/25 14:07:25;;;;;;;8.17;4.03;;;17.30;64.10;;;;;;5025779;28;20437;-78
2022/12/25 14:09:56;;;;;;;7.40;4.63;;;17.30;64.20;;;;;;5020294;28;20468;-78
2022/12/25 14:12:25;;;;;;;9.77;4.73;;;17.30;64.20;;;;;;5019253;28;20456;-78
2022/12/25 14:14:53;;;;;;;5.23;4.03;;;17.30;64.10;;;;;;5014646;28;20524;-79
2022/12/25 14:17:22;;;;;;;7.50;5.50;;;17.30;64.30;;;;;;5014954;28;20504;-79
2022/12/25 14:19:57;;;;;;;7.60;5.37;;;17.30;64.20;;;;;;5014139;28;20567;-80
2022/12/25 14:22:34;;;;;;;12.67;5.60;;;17.30;64.20;;;;;;5008671;28;20459;-79
2022/12/25 14:25:02;;;;;;;10.30;6.60;;;17.30;64.00;;;;;;5009584;28;20441;-79
2022/12/25 14:27:31;;;;;;;13.10;6.43;;;17.30;63.90;;;;;;5008192;28;20446;-78
2022/12/25 14:29:59;;;;;;;11.07;6.93;;;17.30;63.90;;;;;;5004854;28;20488;-79
2022/12/25 14:32:28;;;;;;;10.83;7.47;;;17.30;63.90;;;;;;5008738;28;20449;-79
2022/12/25 14:34:57;;;;;;;9.97;7.53;;;17.30;63.90;;;;;;5006768;28;20437;-79
2022/12/25 14:37:27;;;;;;;12.50;7.40;;;17.30;63.70;;;;;;5010567;28;20437;-78